America — WDE6076 — position and weather

sailwx.info

Track history (hours):
 
Tides and Currents Weather Stations Pressure Air Temp Water Temp Dewpoint Dewpoint Depression Visibility Wind Speed Wind Dir Waves Ship Positions

America

Owner: ET Yacht, LLC, San Diego, CA. More information available from US FCC via Universal Licensing System and Coast Guard Vessel Documentation Center.

Last reported at 2017-Jun-26 01:59 UTC. Time now 2017-Jun-26 02:03 UTC.
Position N 32°43' W 117°10'.

Length 42 m; draft 3.5 m.

Type: Sailing vessel. MMSI: 367375550.

Date/timePositionNaut miles runAvg speedWind from/ knotsBaromVisibWave heightAir tempDewpointWater temp
2017-Jun-26 01:59N 32°43' W 117°10'0 0.0
2017-Jun-26 01:27N 32°43' W 117°10'2 3.4
2017-Jun-26 01:00N 32°43' W 117°12'5 9.0
2017-Jun-26 00:27N 32°39' W 117°15'4 8.9
2017-Jun-26 00:01N 32°37' W 117°19'4 7.1
2017-Jun-25 23:31N 32°35' W 117°22'2 3.8
2017-Jun-25 23:01N 32°34' W 117°24'2 4.7
2017-Jun-25 22:31N 32°32' W 117°23'3 6.3
2017-Jun-25 22:00N 32°34' W 117°20'5 9.2
2017-Jun-25 21:31N 32°37' W 117°17'4 8.7
2017-Jun-25 21:00N 32°41' W 117°14'3 6.5
2017-Jun-25 20:29N 32°43' W 117°11'0 0.1
2017-Jun-25 19:19N 32°43' W 117°10'0 0.0
2017-Jun-25 18:59N 32°43' W 117°10'0 0.0
2017-Jun-25 18:30N 32°43' W 117°10'0 0.0
2017-Jun-25 18:00N 32°43' W 117°10'0 0.0
2017-Jun-25 17:30N 32°43' W 117°10'0 0.0
2017-Jun-25 17:00N 32°43' W 117°10'0 0.0
2017-Jun-25 16:29N 32°43' W 117°10'0 0.0
2017-Jun-25 15:57N 32°43' W 117°10'0 0.0
2017-Jun-25 04:28N 32°43' W 117°10'0 0.0
2017-Jun-25 03:55N 32°43' W 117°10'1 1.4
2017-Jun-25 03:16N 32°42' W 117°10'1 4.8
2017-Jun-25 02:59N 32°41' W 117°09'1 2.7
2017-Jun-25 02:29N 32°42' W 117°10'1 2.1
2017-Jun-25 02:00N 32°43' W 117°11'0 0.2
2017-Jun-25 01:30N 32°43' W 117°11'3 6.7
2017-Jun-25 01:00N 32°41' W 117°14'4 7.6
2017-Jun-25 00:30N 32°38' W 117°16'5 8.8
2017-Jun-24 23:59N 32°36' W 117°21'4 9.0
2017-Jun-24 23:30N 32°34' W 117°26'0 0.9
2017-Jun-24 23:01N 32°34' W 117°26'3 5.7
2017-Jun-24 22:31N 32°36' W 117°24'4 7.6
2017-Jun-24 22:00N 32°38' W 117°20'4 7.5
2017-Jun-24 21:31N 32°39' W 117°15'4 7.6
2017-Jun-24 21:00N 32°42' W 117°14'3 4.3
2017-Jun-24 20:21N 32°43' W 117°10'0 0.0
2017-Jun-24 19:59N 32°43' W 117°10'0 0.0
2017-Jun-24 19:30N 32°43' W 117°10'0 0.0
2017-Jun-24 19:00N 32°43' W 117°10'0 0.0
2017-Jun-24 18:30N 32°43' W 117°10'0 0.0
2017-Jun-24 18:00N 32°43' W 117°10'0 0.0
2017-Jun-24 17:29N 32°43' W 117°10'0 0.0
2017-Jun-24 16:47N 32°43' W 117°10'0 0.0
2017-Jun-24 16:30N 32°43' W 117°10'0 0.0
2017-Jun-24 13:52N 32°43' W 117°10'0 0.0
2017-Jun-24 13:09N 32°43' W 117°10'0 0.0
2017-Jun-24 12:16N 32°43' W 117°10'0 0.0
2017-Jun-24 12:00N 32°43' W 117°10'0 0.0
2017-Jun-24 11:13N 32°43' W 117°10'0 0.0
2017-Jun-24 11:00N 32°43' W 117°10'0 0.0
2017-Jun-24 10:23N 32°43' W 117°10'0 0.0
2017-Jun-24 09:57N 32°43' W 117°10'0 0.0
2017-Jun-24 09:24N 32°43' W 117°10'0 0.0
2017-Jun-24 08:59N 32°43' W 117°10'0 0.0
2017-Jun-24 08:13N 32°43' W 117°10'0 0.0
2017-Jun-24 08:00N 32°43' W 117°10'0 0.0
2017-Jun-24 07:30N 32°43' W 117°10'0 0.0
2017-Jun-24 07:00N 32°43' W 117°10'0 0.0
2017-Jun-24 06:30N 32°43' W 117°10'0 0.0
2017-Jun-24 05:59N 32°43' W 117°10'0 0.0
2017-Jun-24 05:19N 32°43' W 117°10'0 0.0
2017-Jun-24 05:00N 32°43' W 117°10'0 0.0
2017-Jun-24 04:24N 32°43' W 117°10'0 0.0
2017-Jun-24 02:46N 32°43' W 117°10'0 0.0
2017-Jun-24 02:30N 32°43' W 117°10'0 0.0
2017-Jun-24 02:00N 32°43' W 117°10'0 0.0
2017-Jun-24 01:27N 32°43' W 117°10'0 0.0
2017-Jun-24 00:58N 32°43' W 117°10'0 0.0
2017-Jun-24 00:25N 32°43' W 117°10'0 0.0
2017-Jun-23 23:59N 32°43' W 117°10'0 0.9
2017-Jun-23 23:28N 32°43' W 117°11'1 1.9
2017-Jun-23 22:55N 32°42' W 117°10'3 7.0
2017-Jun-23 22:30N 32°43' W 117°13'0 0.6
2017-Jun-23 22:00N 32°43' W 117°13'2 3.5
2017-Jun-23 21:23N 32°43' W 117°10'0 0.0
2017-Jun-23 20:59N 32°43' W 117°10'0 0.0
2017-Jun-23 19:43N 32°43' W 117°10'0 0.0
2017-Jun-23 19:23N 32°43' W 117°10'0 0.0
2017-Jun-23 19:00N 32°43' W 117°10'0 0.0
2017-Jun-23 18:28N 32°43' W 117°10'2 3.4
2017-Jun-23 18:00N 32°43' W 117°12'0 0.9
2017-Jun-23 17:30N 32°44' W 117°13'0 0.0
2017-Jun-23 17:00N 32°44' W 117°13'0 0.0
2017-Jun-23 16:30N 32°44' W 117°13'0 0.5
2017-Jun-23 16:00N 32°43' W 117°13'2 0.7
2017-Jun-23 13:13N 32°43' W 117°10'0 0.0
2017-Jun-23 13:01N 32°43' W 117°10'0 0.0
2017-Jun-23 10:19N 32°43' W 117°10'0 0.0
2017-Jun-22 22:21N 32°43' W 117°10'0 0.0
2017-Jun-22 21:55N 32°43' W 117°10'0 0.0
2017-Jun-22 20:57N 32°43' W 117°10'0 0.0
2017-Jun-22 04:07N 32°43' W 117°10'0 0.0
2017-Jun-22 03:59N 32°43' W 117°10'0 0.0
2017-Jun-22 03:30N 32°43' W 117°10'1 1.4
2017-Jun-22 03:00N 32°43' W 117°11'0 0.9
2017-Jun-22 02:31N 32°43' W 117°12'0 0.7
2017-Jun-22 02:00N 32°43' W 117°11'0 0.9
2017-Jun-22 01:30N 32°43' W 117°11'0 0.4
2017-Jun-22 01:00N 32°43' W 117°11'0 0.6
2017-Jun-22 00:30N 32°43' W 117°11'1 1.3
2017-Jun-21 23:52N 32°42' W 117°10'1 1.9
2017-Jun-21 23:30N 32°43' W 117°11'1 1.0
2017-Jun-21 22:57N 32°43' W 117°11'0 0.0
2017-Jun-21 10:37N 32°43' W 117°10'0 0.0
2017-Jun-21 10:25N 32°43' W 117°10'0 0.0
2017-Jun-21 09:54N 32°43' W 117°10'0 0.0
2017-Jun-21 05:41N 32°43' W 117°10'0 0.0
2017-Jun-21 05:29N 32°43' W 117°10'0 0.0
2017-Jun-21 04:59N 32°43' W 117°10'0 0.0
2017-Jun-21 04:27N 32°43' W 117°10'0 0.0
2017-Jun-21 04:00N 32°43' W 117°10'0 0.0
2017-Jun-21 03:30N 32°43' W 117°10'0 0.0
2017-Jun-21 02:59N 32°43' W 117°10'0 0.0
2017-Jun-21 02:30N 32°43' W 117°10'0 0.0
2017-Jun-21 02:00N 32°43' W 117°10'0 0.0
2017-Jun-21 01:30N 32°43' W 117°10'0 0.0
2017-Jun-21 01:00N 32°43' W 117°10'0 0.0
2017-Jun-21 00:30N 32°43' W 117°10'0 0.0
2017-Jun-20 23:55N 32°43' W 117°10'0 0.0
2017-Jun-20 23:30N 32°43' W 117°10'0 0.0
2017-Jun-20 22:59N 32°43' W 117°10'0 0.0
2017-Jun-20 22:27N 32°43' W 117°10'0 0.0
2017-Jun-20 21:55N 32°43' W 117°10'0 0.0
2017-Jun-20 21:30N 32°43' W 117°10'0 0.0
2017-Jun-20 20:57N 32°43' W 117°10'0 0.0
2017-Jun-20 20:30N 32°43' W 117°10'0 0.0
2017-Jun-20 19:59N 32°43' W 117°10'0 0.0
2017-Jun-20 19:05N 32°43' W 117°10'0 0.0
2017-Jun-20 18:51N 32°43' W 117°10'0 0.0
2017-Jun-20 18:30N 32°43' W 117°10'0 0.0
2017-Jun-20 17:06N 32°43' W 117°10'0 0.0
2017-Jun-20 16:55N 32°43' W 117°10'0 0.0
2017-Jun-20 14:06N 32°43' W 117°10'0 0.0
2017-Jun-20 05:08N 32°43' W 117°10'0 0.0
2017-Jun-20 04:58N 32°43' W 117°10'0 0.0
2017-Jun-20 04:16N 32°43' W 117°10'0 0.0
2017-Jun-20 03:57N 32°43' W 117°10'0 0.0
2017-Jun-20 03:30N 32°43' W 117°10'0 0.0
2017-Jun-20 03:00N 32°43' W 117°10'0 0.0
2017-Jun-20 02:28N 32°43' W 117°10'0 0.0
2017-Jun-20 02:00N 32°43' W 117°10'0 0.0
2017-Jun-20 01:29N 32°43' W 117°10'0 0.0
2017-Jun-20 00:59N 32°43' W 117°10'0 0.0
2017-Jun-20 00:27N 32°43' W 117°10'0 0.0
2017-Jun-19 23:56N 32°43' W 117°10'0 0.0
2017-Jun-19 23:27N 32°43' W 117°10'0 0.0
2017-Jun-19 23:00N 32°43' W 117°10'0 0.0
2017-Jun-19 22:26N 32°43' W 117°10'0 0.0
2017-Jun-19 22:01N 32°43' W 117°10'0 0.0
2017-Jun-19 21:29N 32°43' W 117°10'0 0.0
2017-Jun-19 21:00N 32°43' W 117°10'0 0.0
2017-Jun-19 20:29N 32°43' W 117°10'0 0.0
2017-Jun-19 18:50N 32°43' W 117°10'0 0.0
2017-Jun-19 18:27N 32°43' W 117°10'0 0.0
2017-Jun-19 17:42N 32°43' W 117°10'0 0.0
2017-Jun-19 16:26N 32°43' W 117°10'0 0.0
2017-Jun-19 15:46N 32°43' W 117°10'0 0.0
2017-Jun-19 11:34N 32°43' W 117°10'0 0.0
2017-Jun-19 10:40N 32°43' W 117°10'0 0.0
2017-Jun-19 09:07N 32°43' W 117°10'0 0.0
2017-Jun-19 08:47N 32°43' W 117°10'0 0.0
2017-Jun-19 08:26N 32°43' W 117°10'0 0.0
2017-Jun-19 08:00N 32°43' W 117°10'0 0.0
2017-Jun-19 07:30N 32°43' W 117°10'0 0.0
2017-Jun-19 07:00N 32°43' W 117°10'0 0.0
2017-Jun-19 06:30N 32°43' W 117°10'0 0.0
2017-Jun-19 06:01N 32°43' W 117°10'0 0.0
2017-Jun-19 05:04N 32°43' W 117°10'0 0.0
2017-Jun-19 04:45N 32°43' W 117°10'0 0.0
2017-Jun-19 04:30N 32°43' W 117°10'0 0.0
2017-Jun-19 03:32N 32°43' W 117°10'0 0.1
2017-Jun-19 03:29N 32°43' W 117°10'0 0.0
2017-Jun-19 03:00N 32°43' W 117°10'0 0.0
2017-Jun-19 02:21N 32°43' W 117°10'0 0.0
2017-Jun-19 01:59N 32°43' W 117°10'0 0.0
2017-Jun-19 01:30N 32°43' W 117°10'0 0.0
2017-Jun-19 00:59N 32°43' W 117°10'0 0.2
2017-Jun-19 00:29N 32°43' W 117°10'3 6.7
2017-Jun-19 00:00N 32°42' W 117°14'4 8.1
2017-Jun-18 23:30N 32°38' W 117°15'4 7.7
2017-Jun-18 23:00N 32°35' W 117°18'2 3.1
2017-Jun-18 22:30N 32°34' W 117°19'2 4.2
2017-Jun-18 22:01N 32°35' W 117°17'4 8.6
2017-Jun-18 21:30N 32°39' W 117°15'4 7.5
2017-Jun-18 21:01N 32°42' W 117°14'3 0.2
2017-Jun-18 06:25N 32°43' W 117°10'0 0.0
2017-Jun-18 06:00N 32°43' W 117°10'0 0.0
2017-Jun-18 05:29N 32°43' W 117°10'0 0.0
2017-Jun-18 04:57N 32°43' W 117°10'0 0.0
2017-Jun-18 04:30N 32°43' W 117°10'1 1.1
2017-Jun-18 03:37N 32°43' W 117°12'1 7.8
2017-Jun-18 03:30N 32°43' W 117°13'3 6.7
2017-Jun-18 03:00N 32°40' W 117°14'1 1.5
2017-Jun-18 02:30N 32°40' W 117°14'3 5.3
2017-Jun-18 02:01N 32°43' W 117°13'2 3.7
2017-Jun-18 01:27N 32°43' W 117°10'0 0.0
2017-Jun-18 00:56N 32°43' W 117°10'2 5.0
2017-Jun-18 00:30N 32°43' W 117°13'4 7.3
2017-Jun-18 00:00N 32°39' W 117°14'4 7.3
2017-Jun-17 23:30N 32°36' W 117°16'2 4.3
2017-Jun-17 23:00N 32°34' W 117°17'2 5.0
2017-Jun-17 22:31N 32°35' W 117°20'4 8.0
2017-Jun-17 22:00N 32°38' W 117°19'4 7.1
2017-Jun-17 21:30N 32°39' W 117°14'4 7.4
2017-Jun-17 21:00N 32°43' W 117°13'2 4.2
2017-Jun-17 20:30N 32°43' W 117°10'0 0.0
2017-Jun-17 16:37N 32°43' W 117°10'0 0.1
2017-Jun-17 16:30N 32°43' W 117°10'0 0.0
2017-Jun-17 13:19N 32°43' W 117°10'0 0.0
2017-Jun-17 03:25N 32°43' W 117°10'1 2.0
2017-Jun-17 02:59N 32°43' W 117°12'1 2.8
2017-Jun-17 02:30N 32°43' W 117°13'1 2.2
2017-Jun-17 02:01N 32°43' W 117°12'1 0.2
2017-Jun-16 20:26N 32°43' W 117°10'2 5.2
2017-Jun-16 19:59N 32°43' W 117°13'1 3.1
2017-Jun-16 19:30N 32°41' W 117°14'1 1.6
2017-Jun-16 19:00N 32°42' W 117°14'2 4.9
2017-Jun-16 18:30N 32°43' W 117°11'1 0.8
2017-Jun-16 17:45N 32°43' W 117°10'0 0.0
2017-Jun-16 17:30N 32°43' W 117°10'0 0.0
2017-Jun-16 16:42N 32°43' W 117°10'0 0.0
2017-Jun-16 12:34N 32°43' W 117°10'0 0.0
2017-Jun-16 12:28N 32°43' W 117°10'0 0.0
2017-Jun-16 12:00N 32°43' W 117°10'0 0.0
2017-Jun-16 10:35N 32°43' W 117°10'0 0.0
2017-Jun-16 10:26N 32°43' W 117°10'0 0.0
2017-Jun-16 10:00N 32°43' W 117°10'0 0.0
2017-Jun-16 09:30N 32°43' W 117°10'0 0.0
2017-Jun-16 09:00N 32°43' W 117°10'0 0.0
2017-Jun-16 08:28N 32°43' W 117°10'0 0.0
2017-Jun-16 08:00N 32°43' W 117°10'0 0.0
2017-Jun-16 07:30N 32°43' W 117°10'0 0.0
2017-Jun-16 07:00N 32°43' W 117°10'0 0.0
2017-Jun-16 06:21N 32°43' W 117°10'0 0.0
2017-Jun-16 06:00N 32°43' W 117°10'0 0.0
2017-Jun-16 05:30N 32°43' W 117°10'0 0.0
2017-Jun-16 05:00N 32°43' W 117°10'0 0.0
2017-Jun-16 04:30N 32°43' W 117°10'0 0.0
2017-Jun-16 03:58N 32°43' W 117°10'0 0.1
2017-Jun-16 03:30N 32°43' W 117°10'1 1.2
2017-Jun-16 03:00N 32°43' W 117°11'1 1.4
2017-Jun-16 02:30N 32°43' W 117°12'1 1.2
2017-Jun-16 02:01N 32°43' W 117°11'  
Track history (hours):
 
Tides and Currents Weather Stations Pressure Air Temp Water Temp Dewpoint Dewpoint Depression Visibility Wind Speed Wind Dir Waves Ship Positions

America

Owner: ET Yacht, LLC, San Diego, CA. More information available from US FCC via Universal Licensing System and Coast Guard Vessel Documentation Center.

Last reported at 2017-Jun-26 01:59 UTC. Time now 2017-Jun-26 02:03 UTC.
Position N 32°43' W 117°10'.

Length 42 m; draft 3.5 m.

Type: Sailing vessel. MMSI: 367375550.

Date/timePositionNaut miles runAvg speedWind from/ knotsBaromVisibWave heightAir tempDewpointWater temp
2017-Jun-26 01:59N 32°43' W 117°10'0 0.0
2017-Jun-26 01:27N 32°43' W 117°10'2 3.4
2017-Jun-26 01:00N 32°43' W 117°12'5 9.0
2017-Jun-26 00:27N 32°39' W 117°15'4 8.9
2017-Jun-26 00:01N 32°37' W 117°19'4 7.1
2017-Jun-25 23:31N 32°35' W 117°22'2 3.8
2017-Jun-25 23:01N 32°34' W 117°24'2 4.7
2017-Jun-25 22:31N 32°32' W 117°23'3 6.3
2017-Jun-25 22:00N 32°34' W 117°20'5 9.2
2017-Jun-25 21:31N 32°37' W 117°17'4 8.7
2017-Jun-25 21:00N 32°41' W 117°14'3 6.5
2017-Jun-25 20:29N 32°43' W 117°11'0 0.1
2017-Jun-25 19:19N 32°43' W 117°10'0 0.0
2017-Jun-25 18:59N 32°43' W 117°10'0 0.0
2017-Jun-25 18:30N 32°43' W 117°10'0 0.0
2017-Jun-25 18:00N 32°43' W 117°10'0 0.0
2017-Jun-25 17:30N 32°43' W 117°10'0 0.0
2017-Jun-25 17:00N 32°43' W 117°10'0 0.0
2017-Jun-25 16:29N 32°43' W 117°10'0 0.0
2017-Jun-25 15:57N 32°43' W 117°10'0 0.0
2017-Jun-25 04:28N 32°43' W 117°10'0 0.0
2017-Jun-25 03:55N 32°43' W 117°10'1 1.4
2017-Jun-25 03:16N 32°42' W 117°10'1 4.8
2017-Jun-25 02:59N 32°41' W 117°09'1 2.7
2017-Jun-25 02:29N 32°42' W 117°10'1 2.1
2017-Jun-25 02:00N 32°43' W 117°11'0 0.2
2017-Jun-25 01:30N 32°43' W 117°11'3 6.7
2017-Jun-25 01:00N 32°41' W 117°14'4 7.6
2017-Jun-25 00:30N 32°38' W 117°16'5 8.8
2017-Jun-24 23:59N 32°36' W 117°21'4 9.0
2017-Jun-24 23:30N 32°34' W 117°26'0 0.9
2017-Jun-24 23:01N 32°34' W 117°26'3 5.7
2017-Jun-24 22:31N 32°36' W 117°24'4 7.6
2017-Jun-24 22:00N 32°38' W 117°20'4 7.5
2017-Jun-24 21:31N 32°39' W 117°15'4 7.6
2017-Jun-24 21:00N 32°42' W 117°14'3 4.3
2017-Jun-24 20:21N 32°43' W 117°10'0 0.0
2017-Jun-24 19:59N 32°43' W 117°10'0 0.0
2017-Jun-24 19:30N 32°43' W 117°10'0 0.0
2017-Jun-24 19:00N 32°43' W 117°10'0 0.0
2017-Jun-24 18:30N 32°43' W 117°10'0 0.0
2017-Jun-24 18:00N 32°43' W 117°10'0 0.0
2017-Jun-24 17:29N 32°43' W 117°10'0 0.0
2017-Jun-24 16:47N 32°43' W 117°10'0 0.0
2017-Jun-24 16:30N 32°43' W 117°10'0 0.0
2017-Jun-24 13:52N 32°43' W 117°10'0 0.0
2017-Jun-24 13:09N 32°43' W 117°10'0 0.0
2017-Jun-24 12:16N 32°43' W 117°10'0 0.0
2017-Jun-24 12:00N 32°43' W 117°10'0 0.0
2017-Jun-24 11:13N 32°43' W 117°10'0 0.0
2017-Jun-24 11:00N 32°43' W 117°10'0 0.0
2017-Jun-24 10:23N 32°43' W 117°10'0 0.0
2017-Jun-24 09:57N 32°43' W 117°10'0 0.0
2017-Jun-24 09:24N 32°43' W 117°10'0 0.0
2017-Jun-24 08:59N 32°43' W 117°10'0 0.0
2017-Jun-24 08:13N 32°43' W 117°10'0 0.0
2017-Jun-24 08:00N 32°43' W 117°10'0 0.0
2017-Jun-24 07:30N 32°43' W 117°10'0 0.0
2017-Jun-24 07:00N 32°43' W 117°10'0 0.0
2017-Jun-24 06:30N 32°43' W 117°10'0 0.0
2017-Jun-24 05:59N 32°43' W 117°10'0 0.0
2017-Jun-24 05:19N 32°43' W 117°10'0 0.0
2017-Jun-24 05:00N 32°43' W 117°10'0 0.0
2017-Jun-24 04:24N 32°43' W 117°10'0 0.0
2017-Jun-24 02:46N 32°43' W 117°10'0 0.0
2017-Jun-24 02:30N 32°43' W 117°10'0 0.0
2017-Jun-24 02:00N 32°43' W 117°10'0 0.0
2017-Jun-24 01:27N 32°43' W 117°10'0 0.0
2017-Jun-24 00:58N 32°43' W 117°10'0 0.0
2017-Jun-24 00:25N 32°43' W 117°10'0 0.0
2017-Jun-23 23:59N 32°43' W 117°10'0 0.9
2017-Jun-23 23:28N 32°43' W 117°11'1 1.9
2017-Jun-23 22:55N 32°42' W 117°10'3 7.0
2017-Jun-23 22:30N 32°43' W 117°13'0 0.6
2017-Jun-23 22:00N 32°43' W 117°13'2 3.5
2017-Jun-23 21:23N 32°43' W 117°10'0 0.0
2017-Jun-23 20:59N 32°43' W 117°10'0 0.0
2017-Jun-23 19:43N 32°43' W 117°10'0 0.0
2017-Jun-23 19:23N 32°43' W 117°10'0 0.0
2017-Jun-23 19:00N 32°43' W 117°10'0 0.0
2017-Jun-23 18:28N 32°43' W 117°10'2 3.4
2017-Jun-23 18:00N 32°43' W 117°12'0 0.9
2017-Jun-23 17:30N 32°44' W 117°13'0 0.0
2017-Jun-23 17:00N 32°44' W 117°13'0 0.0
2017-Jun-23 16:30N 32°44' W 117°13'0 0.5
2017-Jun-23 16:00N 32°43' W 117°13'2 0.7
2017-Jun-23 13:13N 32°43' W 117°10'0 0.0
2017-Jun-23 13:01N 32°43' W 117°10'0 0.0
2017-Jun-23 10:19N 32°43' W 117°10'0 0.0
2017-Jun-22 22:21N 32°43' W 117°10'0 0.0
2017-Jun-22 21:55N 32°43' W 117°10'0 0.0
2017-Jun-22 20:57N 32°43' W 117°10'0 0.0
2017-Jun-22 04:07N 32°43' W 117°10'0 0.0
2017-Jun-22 03:59N 32°43' W 117°10'0 0.0
2017-Jun-22 03:30N 32°43' W 117°10'1 1.4
2017-Jun-22 03:00N 32°43' W 117°11'0 0.9
2017-Jun-22 02:31N 32°43' W 117°12'0 0.7
2017-Jun-22 02:00N 32°43' W 117°11'0 0.9
2017-Jun-22 01:30N 32°43' W 117°11'0 0.4
2017-Jun-22 01:00N 32°43' W 117°11'0 0.6
2017-Jun-22 00:30N 32°43' W 117°11'1 1.3
2017-Jun-21 23:52N 32°42' W 117°10'1 1.9
2017-Jun-21 23:30N 32°43' W 117°11'1 1.0
2017-Jun-21 22:57N 32°43' W 117°11'0 0.0
2017-Jun-21 10:37N 32°43' W 117°10'0 0.0
2017-Jun-21 10:25N 32°43' W 117°10'0 0.0
2017-Jun-21 09:54N 32°43' W 117°10'0 0.0
2017-Jun-21 05:41N 32°43' W 117°10'0 0.0
2017-Jun-21 05:29N 32°43' W 117°10'0 0.0
2017-Jun-21 04:59N 32°43' W 117°10'0 0.0
2017-Jun-21 04:27N 32°43' W 117°10'0 0.0
2017-Jun-21 04:00N 32°43' W 117°10'0 0.0
2017-Jun-21 03:30N 32°43' W 117°10'0 0.0
2017-Jun-21 02:59N 32°43' W 117°10'0 0.0
2017-Jun-21 02:30N 32°43' W 117°10'0 0.0
2017-Jun-21 02:00N 32°43' W 117°10'0 0.0
2017-Jun-21 01:30N 32°43' W 117°10'0 0.0
2017-Jun-21 01:00N 32°43' W 117°10'0 0.0
2017-Jun-21 00:30N 32°43' W 117°10'0 0.0
2017-Jun-20 23:55N 32°43' W 117°10'0 0.0
2017-Jun-20 23:30N 32°43' W 117°10'0 0.0
2017-Jun-20 22:59N 32°43' W 117°10'0 0.0
2017-Jun-20 22:27N 32°43' W 117°10'0 0.0
2017-Jun-20 21:55N 32°43' W 117°10'0 0.0
2017-Jun-20 21:30N 32°43' W 117°10'0 0.0
2017-Jun-20 20:57N 32°43' W 117°10'0 0.0
2017-Jun-20 20:30N 32°43' W 117°10'0 0.0
2017-Jun-20 19:59N 32°43' W 117°10'0 0.0
2017-Jun-20 19:05N 32°43' W 117°10'0 0.0
2017-Jun-20 18:51N 32°43' W 117°10'0 0.0
2017-Jun-20 18:30N 32°43' W 117°10'0 0.0
2017-Jun-20 17:06N 32°43' W 117°10'0 0.0
2017-Jun-20 16:55N 32°43' W 117°10'0 0.0
2017-Jun-20 14:06N 32°43' W 117°10'0 0.0
2017-Jun-20 05:08N 32°43' W 117°10'0 0.0
2017-Jun-20 04:58N 32°43' W 117°10'0 0.0
2017-Jun-20 04:16N 32°43' W 117°10'0 0.0
2017-Jun-20 03:57N 32°43' W 117°10'0 0.0
2017-Jun-20 03:30N 32°43' W 117°10'0 0.0
2017-Jun-20 03:00N 32°43' W 117°10'0 0.0
2017-Jun-20 02:28N 32°43' W 117°10'0 0.0
2017-Jun-20 02:00N 32°43' W 117°10'0 0.0
2017-Jun-20 01:29N 32°43' W 117°10'0 0.0
2017-Jun-20 00:59N 32°43' W 117°10'0 0.0
2017-Jun-20 00:27N 32°43' W 117°10'0 0.0
2017-Jun-19 23:56N 32°43' W 117°10'0 0.0
2017-Jun-19 23:27N 32°43' W 117°10'0 0.0
2017-Jun-19 23:00N 32°43' W 117°10'0 0.0
2017-Jun-19 22:26N 32°43' W 117°10'0 0.0
2017-Jun-19 22:01N 32°43' W 117°10'0 0.0
2017-Jun-19 21:29N 32°43' W 117°10'0 0.0
2017-Jun-19 21:00N 32°43' W 117°10'0 0.0
2017-Jun-19 20:29N 32°43' W 117°10'0 0.0
2017-Jun-19 18:50N 32°43' W 117°10'0 0.0
2017-Jun-19 18:27N 32°43' W 117°10'0 0.0
2017-Jun-19 17:42N 32°43' W 117°10'0 0.0
2017-Jun-19 16:26N 32°43' W 117°10'0 0.0
2017-Jun-19 15:46N 32°43' W 117°10'0 0.0
2017-Jun-19 11:34N 32°43' W 117°10'0 0.0
2017-Jun-19 10:40N 32°43' W 117°10'0 0.0
2017-Jun-19 09:07N 32°43' W 117°10'0 0.0
2017-Jun-19 08:47N 32°43' W 117°10'0 0.0
2017-Jun-19 08:26N 32°43' W 117°10'0 0.0
2017-Jun-19 08:00N 32°43' W 117°10'0 0.0
2017-Jun-19 07:30N 32°43' W 117°10'0 0.0
2017-Jun-19 07:00N 32°43' W 117°10'0 0.0
2017-Jun-19 06:30N 32°43' W 117°10'0 0.0
2017-Jun-19 06:01N 32°43' W 117°10'0 0.0
2017-Jun-19 05:04N 32°43' W 117°10'0 0.0
2017-Jun-19 04:45N 32°43' W 117°10'0 0.0
2017-Jun-19 04:30N 32°43' W 117°10'0 0.0
2017-Jun-19 03:32N 32°43' W 117°10'0 0.1
2017-Jun-19 03:29N 32°43' W 117°10'0 0.0
2017-Jun-19 03:00N 32°43' W 117°10'0 0.0
2017-Jun-19 02:21N 32°43' W 117°10'0 0.0
2017-Jun-19 01:59N 32°43' W 117°10'0 0.0
2017-Jun-19 01:30N 32°43' W 117°10'0 0.0
2017-Jun-19 00:59N 32°43' W 117°10'0 0.2
2017-Jun-19 00:29N 32°43' W 117°10'3 6.7
2017-Jun-19 00:00N 32°42' W 117°14'4 8.1
2017-Jun-18 23:30N 32°38' W 117°15'4 7.7
2017-Jun-18 23:00N 32°35' W 117°18'2 3.1
2017-Jun-18 22:30N 32°34' W 117°19'2 4.2
2017-Jun-18 22:01N 32°35' W 117°17'4 8.6
2017-Jun-18 21:30N 32°39' W 117°15'4 7.5
2017-Jun-18 21:01N 32°42' W 117°14'3 0.2
2017-Jun-18 06:25N 32°43' W 117°10'0 0.0
2017-Jun-18 06:00N 32°43' W 117°10'0 0.0
2017-Jun-18 05:29N 32°43' W 117°10'0 0.0
2017-Jun-18 04:57N 32°43' W 117°10'0 0.0
2017-Jun-18 04:30N 32°43' W 117°10'1 1.1
2017-Jun-18 03:37N 32°43' W 117°12'1 7.8
2017-Jun-18 03:30N 32°43' W 117°13'3 6.7
2017-Jun-18 03:00N 32°40' W 117°14'1 1.5
2017-Jun-18 02:30N 32°40' W 117°14'3 5.3
2017-Jun-18 02:01N 32°43' W 117°13'2 3.7
2017-Jun-18 01:27N 32°43' W 117°10'0 0.0
2017-Jun-18 00:56N 32°43' W 117°10'2 5.0
2017-Jun-18 00:30N 32°43' W 117°13'4 7.3
2017-Jun-18 00:00N 32°39' W 117°14'4 7.3
2017-Jun-17 23:30N 32°36' W 117°16'2 4.3
2017-Jun-17 23:00N 32°34' W 117°17'2 5.0
2017-Jun-17 22:31N 32°35' W 117°20'4 8.0
2017-Jun-17 22:00N 32°38' W 117°19'4 7.1
2017-Jun-17 21:30N 32°39' W 117°14'4 7.4
2017-Jun-17 21:00N 32°43' W 117°13'2 4.2
2017-Jun-17 20:30N 32°43' W 117°10'0 0.0
2017-Jun-17 16:37N 32°43' W 117°10'0 0.1
2017-Jun-17 16:30N 32°43' W 117°10'0 0.0
2017-Jun-17 13:19N 32°43' W 117°10'0 0.0
2017-Jun-17 03:25N 32°43' W 117°10'1 2.0
2017-Jun-17 02:59N 32°43' W 117°12'1 2.8
2017-Jun-17 02:30N 32°43' W 117°13'1 2.2
2017-Jun-17 02:01N 32°43' W 117°12'1 0.2
2017-Jun-16 20:26N 32°43' W 117°10'2 5.2
2017-Jun-16 19:59N 32°43' W 117°13'1 3.1
2017-Jun-16 19:30N 32°41' W 117°14'1 1.6
2017-Jun-16 19:00N 32°42' W 117°14'2 4.9
2017-Jun-16 18:30N 32°43' W 117°11'1 0.8
2017-Jun-16 17:45N 32°43' W 117°10'0 0.0
2017-Jun-16 17:30N 32°43' W 117°10'0 0.0
2017-Jun-16 16:42N 32°43' W 117°10'0 0.0
2017-Jun-16 12:34N 32°43' W 117°10'0 0.0
2017-Jun-16 12:28N 32°43' W 117°10'0 0.0
2017-Jun-16 12:00N 32°43' W 117°10'0 0.0
2017-Jun-16 10:35N 32°43' W 117°10'0 0.0
2017-Jun-16 10:26N 32°43' W 117°10'0 0.0
2017-Jun-16 10:00N 32°43' W 117°10'0 0.0
2017-Jun-16 09:30N 32°43' W 117°10'0 0.0
2017-Jun-16 09:00N 32°43' W 117°10'0 0.0
2017-Jun-16 08:28N 32°43' W 117°10'0 0.0
2017-Jun-16 08:00N 32°43' W 117°10'0 0.0
2017-Jun-16 07:30N 32°43' W 117°10'0 0.0
2017-Jun-16 07:00N 32°43' W 117°10'0 0.0
2017-Jun-16 06:21N 32°43' W 117°10'0 0.0
2017-Jun-16 06:00N 32°43' W 117°10'0 0.0
2017-Jun-16 05:30N 32°43' W 117°10'0 0.0
2017-Jun-16 05:00N 32°43' W 117°10'0 0.0
2017-Jun-16 04:30N 32°43' W 117°10'0 0.0
2017-Jun-16 03:58N 32°43' W 117°10'0 0.1
2017-Jun-16 03:30N 32°43' W 117°10'1 1.2
2017-Jun-16 03:00N 32°43' W 117°11'1 1.4
2017-Jun-16 02:30N 32°43' W 117°12'1 1.2
2017-Jun-16 02:01N 32°43' W 117°11'  

Dump ship's entire track history